Time;durP1;ratioP1;P1;durP2;ratioP2;P2;SDS_P1;SDS_P2;PMS_P1;PMS_P2;Temp;Humidity;BMP_temperature;BMP_pressure;BME280_temperature;BME280_humidity;BME280_pressure;Samples;Min_cycle;Max_cycle;Signal;HPM_P1;HPM_P2
2023/11/08 00:00:04;;;;;;;4.05;3.60;;;;;;;;;;5078954;28;20279;-61
2023/11/08 00:02:40;;;;;;;5.45;3.10;;;;;;;;;;5075841;28;20233;-63
2023/11/08 00:05:09;;;;;;;7.10;4.00;;;;;;;;;;5076105;28;20276;-62
2023/11/08 00:07:40;;;;;;;7.03;3.97;;;;;;;;;;5077010;28;20286;-63
2023/11/08 00:10:09;;;;;;;8.68;3.63;;;;;;;;;;5069239;28;20286;-63
2023/11/08 00:12:37;;;;;;;4.70;3.40;;;;;;;;;;5075230;28;20287;-63
2023/11/08 00:15:08;;;;;;;7.05;4.15;;;;;;;;;;5078406;28;20333;-62
2023/11/08 00:17:37;;;;;;;7.75;3.63;;;;;;;;;;5077300;28;20208;-67
2023/11/08 00:20:10;;;;;;;5.28;2.80;;;;;;;;;;5079477;28;20257;-63
2023/11/08 00:22:39;;;;;;;6.65;3.38;;;;;;;;;;5060821;28;20236;-62
2023/11/08 00:25:07;;;;;;;8.80;3.50;;;;;;;;;;5077941;28;20325;-64
2023/11/08 00:27:35;;;;;;;6.40;3.60;;;;;;;;;;5077138;28;20251;-62
2023/11/08 00:30:04;;;;;;;3.95;3.50;;;;;;;;;;5078275;28;20278;-62
2023/11/08 00:32:33;;;;;;;7.32;3.75;;;;;;;;;;5079132;28;20287;-62
2023/11/08 00:35:02;;;;;;;7.63;3.85;;;;;;;;;;5060619;28;20279;-63
2023/11/08 00:37:30;;;;;;;4.30;3.63;;;;;;;;;;5066119;28;20282;-62
2023/11/08 00:39:59;;;;;;;8.55;3.70;;;;;;;;;;5077810;28;20259;-61
2023/11/08 00:42:27;;;;;;;5.13;3.85;;;;;;;;;;5066563;28;20718;-64
2023/11/08 00:44:56;;;;;;;5.43;3.92;;;;;;;;;;5077944;28;20654;-63
2023/11/08 00:47:24;;;;;;;4.07;3.35;;;;;;;;;;5077684;28;20252;-65
2023/11/08 00:49:54;;;;;;;5.75;3.90;;;;;;;;;;5078025;28;20663;-63
2023/11/08 00:52:23;;;;;;;7.00;3.67;;;;;;;;;;5080434;28;20287;-64
2023/11/08 00:54:51;;;;;;;4.25;3.35;;;;;;;;;;5080056;28;20251;-63
2023/11/08 00:57:19;;;;;;;7.38;3.47;;;;;;;;;;5079327;28;20263;-62
2023/11/08 00:59:47;;;;;;;6.00;4.60;;;;;;;;;;5078882;28;20358;-63
2023/11/08 01:02:16;;;;;;;8.70;3.65;;;;;;;;;;5078213;28;20294;-62
2023/11/08 01:04:44;;;;;;;9.27;5.10;;;;;;;;;;5059118;28;20283;-64
2023/11/08 01:07:14;;;;;;;4.80;3.95;;;;;;;;;;5074840;28;20278;-63
2023/11/08 01:09:42;;;;;;;4.13;3.30;;;;;;;;;;5058006;28;20203;-62
2023/11/08 01:12:10;;;;;;;7.43;3.45;;;;;;;;;;5072693;28;20232;-64
2023/11/08 01:14:39;;;;;;;9.57;5.28;;;;;;;;;;5072327;28;20200;-64
2023/11/08 01:17:07;;;;;;;7.70;3.85;;;;;;;;;;5073084;28;20208;-64
2023/11/08 01:19:36;;;;;;;5.40;3.75;;;;;;;;;;5072518;28;20289;-64
2023/11/08 01:22:05;;;;;;;4.45;4.13;;;;;;;;;;5073880;28;20206;-64
2023/11/08 01:24:35;;;;;;;7.10;4.32;;;;;;;;;;5073765;28;20817;-64
2023/11/08 01:27:03;;;;;;;4.95;3.85;;;;;;;;;;5073563;28;20211;-63
2023/11/08 01:29:32;;;;;;;8.45;3.97;;;;;;;;;;5072969;28;20200;-63
2023/11/08 01:32:00;;;;;;;6.63;4.20;;;;;;;;;;5054437;28;20200;-63
2023/11/08 01:34:29;;;;;;;7.00;3.90;;;;;;;;;;5072531;28;20210;-63
2023/11/08 01:36:57;;;;;;;8.90;3.97;;;;;;;;;;5072440;28;20203;-63
2023/11/08 01:39:25;;;;;;;12.65;4.88;;;;;;;;;;5072924;28;20220;-63
2023/11/08 01:41:55;;;;;;;6.93;3.97;;;;;;;;;;5071772;28;20667;-63
2023/11/08 01:44:23;;;;;;;5.30;4.50;;;;;;;;;;5072509;28;20261;-63
2023/11/08 01:46:53;;;;;;;3.88;3.58;;;;;;;;;;5054404;28;20199;-63
2023/11/08 01:49:22;;;;;;;11.40;4.47;;;;;;;;;;5072515;28;20202;-63
2023/11/08 01:51:50;;;;;;;6.15;4.55;;;;;;;;;;5054360;28;20200;-63
2023/11/08 01:54:20;;;;;;;5.57;4.15;;;;;;;;;;5072228;28;20706;-63
2023/11/08 01:56:48;;;;;;;7.45;3.88;;;;;;;;;;5073238;28;20204;-63
2023/11/08 01:59:18;;;;;;;6.78;4.00;;;;;;;;;;5054050;28;20711;-64
2023/11/08 02:01:47;;;;;;;4.15;3.40;;;;;;;;;;5053479;28;20208;-67
2023/11/08 02:04:15;;;;;;;7.57;4.00;;;;;;;;;;5069480;28;20200;-67
2023/11/08 02:06:44;;;;;;;3.63;3.40;;;;;;;;;;5068059;28;20227;-66
2023/11/08 02:09:12;;;;;;;4.47;3.42;;;;;;;;;;5062282;28;20204;-67
2023/11/08 02:11:41;;;;;;;6.00;3.97;;;;;;;;;;5071864;28;20594;-67
2023/11/08 02:14:09;;;;;;;5.32;3.67;;;;;;;;;;5074215;28;20200;-67
2023/11/08 02:16:40;;;;;;;7.32;3.97;;;;;;;;;;5073624;28;20655;-67
2023/11/08 02:19:08;;;;;;;3.92;3.35;;;;;;;;;;5073394;28;20206;-67
2023/11/08 02:21:36;;;;;;;6.05;4.10;;;;;;;;;;5073933;28;20218;-64
2023/11/08 02:24:20;;;;;;;8.00;3.80;;;;;;;;;;5074548;28;20208;-67
2023/11/08 02:26:49;;;;;;;6.22;4.43;;;;;;;;;;5073719;28;20567;-66
2023/11/08 02:29:19;;;;;;;9.10;4.15;;;;;;;;;;5071664;28;20529;-67
2023/11/08 02:31:50;;;;;;;5.90;4.57;;;;;;;;;;5073705;28;20681;-67
2023/11/08 02:34:18;;;;;;;7.25;4.20;;;;;;;;;;5073773;28;20192;-66
2023/11/08 02:36:46;;;;;;;6.15;3.70;;;;;;;;;;5055861;28;20214;-67
2023/11/08 02:39:15;;;;;;;8.00;4.68;;;;;;;;;;5073532;28;20245;-68
2023/11/08 02:41:44;;;;;;;4.85;4.15;;;;;;;;;;5073460;28;20197;-68
2023/11/08 02:44:12;;;;;;;6.53;3.85;;;;;;;;;;5067512;28;20220;-67
2023/11/08 02:46:41;;;;;;;8.52;4.35;;;;;;;;;;5072860;28;20204;-68
2023/11/08 02:49:11;;;;;;;8.52;4.55;;;;;;;;;;5072756;28;20200;-67
2023/11/08 02:51:39;;;;;;;6.35;4.13;;;;;;;;;;5073073;28;20196;-68
2023/11/08 02:54:08;;;;;;;6.60;4.68;;;;;;;;;;5073587;28;20544;-66
2023/11/08 02:56:38;;;;;;;7.55;4.22;;;;;;;;;;5056208;28;20216;-65
2023/11/08 02:59:08;;;;;;;7.95;4.20;;;;;;;;;;5072639;28;20670;-67
2023/11/08 03:01:37;;;;;;;6.63;5.68;;;;;;;;;;5072278;28;20208;-65
2023/11/08 03:04:05;;;;;;;12.40;4.38;;;;;;;;;;5054682;28;20204;-67
2023/11/08 03:06:33;;;;;;;9.27;5.00;;;;;;;;;;5072433;28;20200;-67
2023/11/08 03:09:02;;;;;;;4.90;4.50;;;;;;;;;;5073412;28;20196;-67
2023/11/08 03:11:30;;;;;;;10.82;4.47;;;;;;;;;;5071750;28;20740;-67
2023/11/08 03:13:59;;;;;;;10.88;4.10;;;;;;;;;;5071648;28;20560;-67
2023/11/08 03:16:28;;;;;;;5.82;4.43;;;;;;;;;;5073167;28;20216;-66
2023/11/08 03:18:57;;;;;;;6.38;3.95;;;;;;;;;;5073359;28;20230;-66
2023/11/08 03:21:26;;;;;;;7.45;4.75;;;;;;;;;;5054790;28;20200;-67
2023/11/08 03:23:54;;;;;;;5.65;3.70;;;;;;;;;;5070453;28;20650;-66
2023/11/08 03:26:22;;;;;;;4.72;4.20;;;;;;;;;;5071563;28;20196;-67
2023/11/08 03:28:50;;;;;;;4.72;3.83;;;;;;;;;;5072334;28;20196;-67
2023/11/08 03:31:19;;;;;;;5.55;3.80;;;;;;;;;;5055659;28;20204;-67
2023/11/08 03:33:49;;;;;;;4.10;2.85;;;;;;;;;;5072857;28;20206;-67
2023/11/08 03:36:17;;;;;;;4.60;3.45;;;;;;;;;;5071761;28;20199;-66
2023/11/08 03:38:46;;;;;;;4.95;2.90;;;;;;;;;;5072072;28;20200;-67
2023/11/08 03:41:14;;;;;;;11.30;3.88;;;;;;;;;;5043801;28;20196;-67
2023/11/08 03:43:43;;;;;;;4.65;2.88;;;;;;;;;;5070248;28;20224;-67
2023/11/08 03:46:11;;;;;;;5.88;3.28;;;;;;;;;;5063612;28;20212;-67
2023/11/08 03:48:39;;;;;;;3.45;3.03;;;;;;;;;;5071757;28;20192;-67
2023/11/08 03:51:11;;;;;;;6.00;3.13;;;;;;;;;;5072307;28;20192;-66
2023/11/08 03:53:39;;;;;;;5.80;2.85;;;;;;;;;;5072353;28;20188;-66
2023/11/08 03:56:08;;;;;;;6.50;3.30;;;;;;;;;;5072236;28;20654;-67
2023/11/08 03:58:36;;;;;;;5.05;3.25;;;;;;;;;;5072282;28;20202;-67
2023/11/08 04:01:05;;;;;;;6.20;3.13;;;;;;;;;;5071268;28;20212;-67
2023/11/08 04:03:33;;;;;;;6.50;3.65;;;;;;;;;;5071376;28;20198;-67
2023/11/08 04:06:01;;;;;;;9.90;2.80;;;;;;;;;;5071054;28;20202;-67
2023/11/08 04:08:31;;;;;;;9.15;3.10;;;;;;;;;;5071754;28;20227;-67
2023/11/08 04:10:59;;;;;;;6.85;2.47;;;;;;;;;;5071472;28;20228;-67
2023/11/08 04:13:27;;;;;;;8.15;2.90;;;;;;;;;;5054495;28;20195;-68
2023/11/08 04:15:55;;;;;;;4.80;2.00;;;;;;;;;;5070778;28;20210;-66
2023/11/08 04:18:24;;;;;;;3.28;2.20;;;;;;;;;;5072002;28;20204;-67
2023/11/08 04:20:52;;;;;;;7.47;3.00;;;;;;;;;;5071018;28;20226;-67
2023/11/08 04:23:20;;;;;;;8.48;2.70;;;;;;;;;;5071006;28;20218;-67
2023/11/08 04:25:50;;;;;;;8.95;3.00;;;;;;;;;;5070764;28;20204;-66
2023/11/08 04:28:18;;;;;;;4.95;2.83;;;;;;;;;;5066114;28;20215;-67
2023/11/08 04:30:47;;;;;;;8.20;3.65;;;;;;;;;;5070651;28;20684;-66
2023/11/08 04:33:15;;;;;;;7.43;2.85;;;;;;;;;;5070617;28;20204;-67
2023/11/08 04:35:43;;;;;;;3.67;1.90;;;;;;;;;;5070935;28;20208;-67
2023/11/08 04:38:11;;;;;;;3.30;2.35;;;;;;;;;;5071927;28;20208;-66
2023/11/08 04:40:39;;;;;;;7.15;2.50;;;;;;;;;;5071248;28;20219;-67
2023/11/08 04:43:09;;;;;;;3.00;2.28;;;;;;;;;;5070505;28;20775;-67
2023/11/08 04:45:38;;;;;;;3.20;2.45;;;;;;;;;;5053665;28;20559;-67
2023/11/08 04:48:06;;;;;;;3.30;2.28;;;;;;;;;;5051931;28;20215;-65
2023/11/08 04:50:34;;;;;;;7.50;2.55;;;;;;;;;;5068914;28;20548;-66
2023/11/08 04:53:02;;;;;;;4.30;2.63;;;;;;;;;;5071277;28;20208;-67
2023/11/08 04:55:31;;;;;;;2.95;2.15;;;;;;;;;;5070686;28;20208;-67
2023/11/08 04:57:59;;;;;;;9.57;2.97;;;;;;;;;;5071867;28;20200;-67
2023/11/08 05:00:29;;;;;;;4.28;2.47;;;;;;;;;;5070224;28;20215;-65
2023/11/08 05:02:57;;;;;;;4.90;2.72;;;;;;;;;;5051740;28;20200;-67
2023/11/08 05:05:26;;;;;;;8.45;3.75;;;;;;;;;;5070033;28;20196;-67
2023/11/08 05:07:54;;;;;;;3.78;3.45;;;;;;;;;;5070871;28;20659;-67
2023/11/08 05:10:24;;;;;;;12.45;3.95;;;;;;;;;;5073081;28;20218;-63
2023/11/08 05:12:53;;;;;;;3.28;2.72;;;;;;;;;;5048890;28;20739;-63
2023/11/08 05:15:23;;;;;;;3.72;2.20;;;;;;;;;;5033384;28;20209;-63
2023/11/08 05:17:54;;;;;;;6.13;3.35;;;;;;;;;;5033224;28;20211;-63
2023/11/08 05:20:24;;;;;;;6.22;4.00;;;;;;;;;;5033636;28;20205;-63
2023/11/08 05:22:53;;;;;;;9.85;2.60;;;;;;;;;;5033958;28;20644;-63
2023/11/08 05:25:22;;;;;;;7.68;4.20;;;;;;;;;;5032688;28;20212;-62
2023/11/08 05:27:52;;;;;;;5.00;3.15;;;;;;;;;;5033069;28;20219;-62
2023/11/08 05:30:20;;;;;;;9.00;3.72;;;;;;;;;;5033045;28;20262;-62
2023/11/08 05:32:49;;;;;;;7.60;2.70;;;;;;;;;;5033209;28;20284;-63
2023/11/08 05:35:18;;;;;;;7.65;4.40;;;;;;;;;;5032429;28;20209;-64
2023/11/08 05:37:47;;;;;;;8.38;3.45;;;;;;;;;;5033509;28;20590;-63
2023/11/08 05:40:16;;;;;;;4.78;4.03;;;;;;;;;;5013142;28;20221;-64
2023/11/08 05:42:44;;;;;;;3.42;2.47;;;;;;;;;;5013673;28;20210;-64
2023/11/08 05:45:12;;;;;;;6.03;3.28;;;;;;;;;;5027826;28;20205;-64
2023/11/08 05:47:44;;;;;;;6.53;3.38;;;;;;;;;;5020845;28;20214;-64
2023/11/08 05:50:12;;;;;;;8.27;2.78;;;;;;;;;;5016541;28;20231;-64
2023/11/08 05:52:42;;;;;;;5.13;2.10;;;;;;;;;;5033572;28;20246;-64
2023/11/08 05:55:11;;;;;;;5.38;2.70;;;;;;;;;;5035880;28;20204;-63
2023/11/08 05:57:40;;;;;;;3.28;2.70;;;;;;;;;;5037299;28;20197;-63
2023/11/08 06:00:10;;;;;;;4.78;2.30;;;;;;;;;;5036770;28;20205;-62
2023/11/08 06:02:38;;;;;;;4.60;2.35;;;;;;;;;;5035748;28;20197;-63
2023/11/08 06:05:08;;;;;;;4.22;2.83;;;;;;;;;;5036147;28;20205;-63
2023/11/08 06:07:36;;;;;;;2.88;2.55;;;;;;;;;;5036330;28;20205;-64
2023/11/08 06:10:06;;;;;;;4.78;2.53;;;;;;;;;;5034525;28;20205;-62
2023/11/08 06:12:34;;;;;;;4.20;2.40;;;;;;;;;;5058203;28;20292;-63
2023/11/08 06:15:05;;;;;;;4.82;2.72;;;;;;;;;;5076485;28;20200;-63
2023/11/08 06:17:33;;;;;;;3.65;2.60;;;;;;;;;;5078731;28;20268;-63
2023/11/08 06:20:02;;;;;;;13.55;2.05;;;;;;;;;;5074755;28;20663;-63
2023/11/08 06:22:31;;;;;;;3.75;2.13;;;;;;;;;;5075979;28;20194;-63
2023/11/08 06:25:00;;;;;;;2.75;1.90;;;;;;;;;;5076280;28;20199;-63
2023/11/08 06:27:29;;;;;;;4.30;2.63;;;;;;;;;;5058240;28;20204;-63
2023/11/08 06:29:57;;;;;;;2.55;2.05;;;;;;;;;;5075993;28;20208;-64
2023/11/08 06:32:26;;;;;;;4.40;2.30;;;;;;;;;;5058087;28;20200;-64
2023/11/08 06:34:54;;;;;;;2.30;2.10;;;;;;;;;;5075907;28;20283;-63
2023/11/08 06:37:22;;;;;;;3.72;3.08;;;;;;;;;;5075812;28;20553;-64
2023/11/08 06:39:51;;;;;;;10.52;3.17;;;;;;;;;;5075797;28;20200;-64
2023/11/08 06:42:19;;;;;;;5.38;2.83;;;;;;;;;;5075350;28;20216;-64
2023/11/08 06:44:48;;;;;;;4.40;2.60;;;;;;;;;;5075551;28;20237;-65
2023/11/08 06:47:18;;;;;;;2.28;1.92;;;;;;;;;;5074982;28;20659;-64
2023/11/08 06:49:46;;;;;;;4.85;2.90;;;;;;;;;;5057417;28;20218;-63
2023/11/08 06:52:14;;;;;;;4.63;2.00;;;;;;;;;;5074814;28;20196;-64
2023/11/08 06:54:43;;;;;;;6.50;2.70;;;;;;;;;;5073217;28;21292;-63
2023/11/08 06:57:11;;;;;;;5.55;2.08;;;;;;;;;;5071405;28;20539;-63
2023/11/08 06:59:39;;;;;;;3.05;1.85;;;;;;;;;;5073811;28;20204;-60
2023/11/08 07:02:09;;;;;;;2.45;1.80;;;;;;;;;;5072507;28;20216;-63
2023/11/08 07:04:37;;;;;;;2.20;1.58;;;;;;;;;;5072993;28;20222;-63
2023/11/08 07:07:05;;;;;;;3.03;2.00;;;;;;;;;;5073751;28;20208;-63
2023/11/08 07:09:33;;;;;;;3.72;1.88;;;;;;;;;;5073501;28;20562;-63
2023/11/08 07:12:03;;;;;;;5.50;2.13;;;;;;;;;;5072813;28;20228;-63
2023/11/08 07:14:31;;;;;;;4.03;2.38;;;;;;;;;;5073247;28;20204;-64
2023/11/08 07:17:00;;;;;;;4.47;2.70;;;;;;;;;;5072879;28;20565;-64
2023/11/08 07:19:29;;;;;;;3.78;2.13;;;;;;;;;;5073913;28;20206;-63
2023/11/08 07:21:58;;;;;;;1.90;1.75;;;;;;;;;;5073095;28;20219;-63
2023/11/08 07:24:26;;;;;;;4.35;2.10;;;;;;;;;;5072829;28;20260;-63
2023/11/08 07:26:54;;;;;;;6.68;1.63;;;;;;;;;;5054496;28;20208;-64
2023/11/08 07:29:23;;;;;;;4.30;1.67;;;;;;;;;;5072325;28;20196;-62
2023/11/08 07:31:51;;;;;;;6.18;2.00;;;;;;;;;;5072878;28;20201;-64
2023/11/08 07:34:21;;;;;;;2.78;1.58;;;;;;;;;;5072706;28;20211;-64
2023/11/08 07:36:51;;;;;;;3.38;1.60;;;;;;;;;;5074856;28;20658;-64
2023/11/08 07:39:20;;;;;;;2.10;1.60;;;;;;;;;;5074930;28;20193;-64
2023/11/08 07:41:48;;;;;;;3.05;1.77;;;;;;;;;;5074562;28;20230;-64
2023/11/08 07:44:16;;;;;;;2.88;1.70;;;;;;;;;;5065529;28;20234;-65
2023/11/08 07:46:44;;;;;;;2.78;1.92;;;;;;;;;;5063193;28;20208;-64
2023/11/08 07:49:12;;;;;;;3.42;1.90;;;;;;;;;;5068585;28;20200;-64
2023/11/08 07:51:40;;;;;;;4.10;1.90;;;;;;;;;;5070815;28;20819;-64
2023/11/08 07:54:10;;;;;;;2.38;1.80;;;;;;;;;;5071289;28;20192;-63
2023/11/08 07:56:38;;;;;;;2.97;2.28;;;;;;;;;;5070740;28;20205;-60
2023/11/08 07:59:07;;;;;;;5.50;2.10;;;;;;;;;;5069130;28;20203;-64
2023/11/08 08:01:35;;;;;;;4.68;2.15;;;;;;;;;;5035868;28;20212;-61
2023/11/08 08:04:05;;;;;;;3.72;2.67;;;;;;;;;;5070898;28;20202;-64
2023/11/08 08:06:33;;;;;;;2.40;2.20;;;;;;;;;;5072160;28;20233;-64
2023/11/08 08:09:02;;;;;;;2.20;2.00;;;;;;;;;;5071378;28;20192;-64
2023/11/08 08:11:32;;;;;;;3.50;2.10;;;;;;;;;;5071348;28;20226;-65
2023/11/08 08:14:00;;;;;;;7.25;2.20;;;;;;;;;;5071631;28;20207;-64
2023/11/08 08:16:28;;;;;;;4.03;2.42;;;;;;;;;;5071439;28;20200;-63
2023/11/08 08:18:57;;;;;;;2.58;2.13;;;;;;;;;;5071448;28;20226;-64
2023/11/08 08:21:26;;;;;;;4.55;2.00;;;;;;;;;;5070729;28;20246;-65
2023/11/08 08:23:55;;;;;;;2.72;1.88;;;;;;;;;;5072191;28;20215;-64
2023/11/08 08:26:23;;;;;;;3.22;1.40;;;;;;;;;;5071206;28;20206;-64
2023/11/08 08:28:53;;;;;;;1.55;1.45;;;;;;;;;;5052754;28;20202;-64
2023/11/08 08:31:21;;;;;;;2.50;2.00;;;;;;;;;;5070689;28;20592;-64
2023/11/08 08:33:50;;;;;;;3.38;1.75;;;;;;;;;;5070293;28;20212;-64
2023/11/08 08:36:18;;;;;;;7.05;1.77;;;;;;;;;;5069891;28;20196;-64
2023/11/08 08:38:47;;;;;;;3.72;1.60;;;;;;;;;;5069963;28;20203;-63
2023/11/08 08:41:15;;;;;;;2.63;1.40;;;;;;;;;;5069615;28;20210;-61
2023/11/08 08:43:43;;;;;;;6.40;1.70;;;;;;;;;;5064914;28;20228;-64
2023/11/08 08:46:13;;;;;;;7.10;1.45;;;;;;;;;;5060573;28;20604;-64
2023/11/08 08:48:42;;;;;;;5.53;2.05;;;;;;;;;;5069852;28;20588;-64
2023/11/08 08:51:10;;;;;;;2.33;1.90;;;;;;;;;;5070690;28;20670;-65
2023/11/08 08:53:39;;;;;;;1.77;1.60;;;;;;;;;;5071532;28;20207;-64
2023/11/08 08:56:07;;;;;;;5.40;2.50;;;;;;;;;;5070652;28;20202;-65
2023/11/08 08:58:35;;;;;;;5.85;2.10;;;;;;;;;;5071185;28;20257;-64
2023/11/08 09:01:04;;;;;;;4.75;1.88;;;;;;;;;;5070360;28;20192;-64
2023/11/08 09:03:33;;;;;;;3.00;1.63;;;;;;;;;;5069526;28;20214;-64
2023/11/08 09:06:01;;;;;;;2.80;2.05;;;;;;;;;;5070675;28;20204;-64
2023/11/08 09:08:30;;;;;;;2.45;2.22;;;;;;;;;;5070054;28;20218;-64
2023/11/08 09:10:58;;;;;;;3.42;2.05;;;;;;;;;;5071103;28;20228;-64
2023/11/08 09:13:26;;;;;;;3.60;1.67;;;;;;;;;;5070169;28;20206;-64
2023/11/08 09:15:54;;;;;;;2.42;1.95;;;;;;;;;;5067173;28;20212;-65
2023/11/08 09:18:22;;;;;;;4.70;2.15;;;;;;;;;;5066999;28;20215;-64
2023/11/08 09:20:52;;;;;;;5.07;1.75;;;;;;;;;;5062394;28;20196;-63
2023/11/08 09:23:20;;;;;;;1.88;1.77;;;;;;;;;;5053529;28;20256;-63
2023/11/08 09:25:49;;;;;;;2.30;2.05;;;;;;;;;;5070135;28;20626;-61
2023/11/08 09:28:17;;;;;;;4.15;1.95;;;;;;;;;;5065903;28;20204;-61
2023/11/08 09:30:45;;;;;;;2.42;1.80;;;;;;;;;;5058470;28;20209;-61
2023/11/08 09:33:14;;;;;;;2.08;1.80;;;;;;;;;;5070245;28;20202;-62
2023/11/08 09:35:42;;;;;;;1.45;1.35;;;;;;;;;;5069270;28;20580;-64
2023/11/08 09:38:12;;;;;;;2.10;1.80;;;;;;;;;;5035876;28;20196;-64
2023/11/08 09:40:40;;;;;;;5.00;2.00;;;;;;;;;;5070196;28;20198;-64
2023/11/08 09:43:09;;;;;;;4.35;1.70;;;;;;;;;;5069575;28;20219;-64
2023/11/08 09:45:37;;;;;;;4.07;1.85;;;;;;;;;;5064451;28;20256;-65
2023/11/08 09:48:06;;;;;;;4.90;1.55;;;;;;;;;;5071734;28;20540;-66
2023/11/08 09:50:35;;;;;;;2.75;1.77;;;;;;;;;;5068101;28;20651;-64
2023/11/08 09:53:05;;;;;;;3.75;2.10;;;;;;;;;;5070905;28;20188;-65
2023/11/08 09:55:35;;;;;;;5.45;1.70;;;;;;;;;;5067152;28;20210;-64
2023/11/08 09:58:06;;;;;;;3.33;1.80;;;;;;;;;;5063345;28;20184;-65
2023/11/08 10:00:34;;;;;;;3.95;1.98;;;;;;;;;;5067485;28;20219;-63
2023/11/08 10:03:05;;;;;;;5.65;1.75;;;;;;;;;;5068270;28;20204;-65
2023/11/08 10:05:36;;;;;;;2.30;2.10;;;;;;;;;;5068384;28;20534;-64
2023/11/08 10:08:09;;;;;;;1.70;1.60;;;;;;;;;;5071012;28;20196;-64
2023/11/08 10:10:42;;;;;;;2.35;1.95;;;;;;;;;;5056946;28;20192;-64
2023/11/08 10:13:10;;;;;;;1.70;1.60;;;;;;;;;;5069349;28;20192;-64
2023/11/08 10:15:41;;;;;;;3.13;1.75;;;;;;;;;;5069898;28;20196;-64
2023/11/08 10:18:10;;;;;;;2.40;2.17;;;;;;;;;;5052348;28;20214;-64
2023/11/08 10:20:38;;;;;;;2.13;1.85;;;;;;;;;;5068273;28;20206;-63
2023/11/08 10:23:07;;;;;;;3.67;2.00;;;;;;;;;;5060497;28;20273;-66
2023/11/08 10:25:39;;;;;;;1.90;1.77;;;;;;;;;;5069205;28;20206;-63
2023/11/08 10:28:09;;;;;;;4.20;1.90;;;;;;;;;;5069543;28;20196;-64
2023/11/08 10:30:39;;;;;;;4.88;2.20;;;;;;;;;;5069773;28;20204;-64
2023/11/08 10:33:08;;;;;;;2.35;1.73;;;;;;;;;;5071977;28;20198;-64
2023/11/08 10:35:37;;;;;;;4.10;1.80;;;;;;;;;;5073688;28;20574;-65
2023/11/08 10:38:08;;;;;;;3.90;1.60;;;;;;;;;;5073083;28;20184;-66
2023/11/08 10:40:36;;;;;;;2.05;1.90;;;;;;;;;;5072988;28;20208;-63
2023/11/08 10:43:06;;;;;;;3.55;2.20;;;;;;;;;;5073089;28;20691;-61
2023/11/08 10:45:34;;;;;;;2.35;1.65;;;;;;;;;;5054396;28;20253;-65
2023/11/08 10:48:03;;;;;;;3.40;2.00;;;;;;;;;;5072663;28;20658;-65
2023/11/08 10:50:32;;;;;;;1.85;1.75;;;;;;;;;;5071594;28;20212;-64
2023/11/08 10:53:04;;;;;;;3.03;2.40;;;;;;;;;;5055285;28;20188;-64
2023/11/08 10:55:33;;;;;;;3.63;1.73;;;;;;;;;;5072904;28;20630;-64
2023/11/08 10:58:04;;;;;;;6.65;2.70;;;;;;;;;;5069991;28;20696;-64
2023/11/08 11:00:35;;;;;;;2.20;2.05;;;;;;;;;;5055729;28;20188;-65
2023/11/08 11:03:09;;;;;;;3.00;1.70;;;;;;;;;;5072387;28;20211;-65
2023/11/08 11:05:40;;;;;;;1.88;1.52;;;;;;;;;;5070721;28;20558;-64
2023/11/08 11:08:08;;;;;;;3.30;1.70;;;;;;;;;;5073014;28;20219;-63
2023/11/08 11:10:39;;;;;;;5.10;2.13;;;;;;;;;;5073585;28;20192;-64
2023/11/08 11:13:11;;;;;;;3.40;2.25;;;;;;;;;;5072658;28;20197;-64
2023/11/08 11:15:49;;;;;;;4.13;2.17;;;;;;;;;;5071500;28;20199;-63
2023/11/08 11:18:20;;;;;;;2.90;2.27;;;;;;;;;;5056041;28;20583;-63
2023/11/08 11:20:50;;;;;;;4.57;2.40;;;;;;;;;;5073558;28;20662;-63
2023/11/08 11:23:31;;;;;;;2.40;2.20;;;;;;;;;;5072850;28;21246;-64
2023/11/08 11:26:00;;;;;;;2.30;2.10;;;;;;;;;;5070794;28;20619;-64
2023/11/08 11:28:43;;;;;;;3.90;2.13;;;;;;;;;;5053363;28;20622;-63
2023/11/08 11:31:30;;;;;;;2.60;2.33;;;;;;;;;;5070718;28;21018;-64
2023/11/08 11:34:00;;;;;;;2.43;2.30;;;;;;;;;;5049313;28;22426;-65
2023/11/08 11:36:28;;;;;;;2.57;2.00;;;;;;;;;;5069574;28;20644;-63
2023/11/08 11:39:12;;;;;;;4.50;1.97;;;;;;;;;;5071582;28;20630;-64
2023/11/08 11:41:41;;;;;;;4.07;2.10;;;;;;;;;;5070553;28;20610;-63
2023/11/08 11:44:12;;;;;;;3.53;2.00;;;;;;;;;;5072325;28;20641;-65
2023/11/08 11:46:50;;;;;;;2.40;2.20;;;;;;;;;;5070037;28;21179;-64
2023/11/08 11:49:22;;;;;;;3.67;2.30;;;;;;;;;;5070598;28;20610;-63
2023/11/08 11:51:53;;;;;;;7.83;1.90;;;;;;;;;;5071636;28;20571;-64
2023/11/08 11:54:25;;;;;;;6.30;2.00;;;;;;;;;;5071002;28;20629;-63
2023/11/08 11:56:56;;;;;;;2.33;2.10;;;;;;;;;;5072230;28;20617;-64
2023/11/08 11:59:25;;;;;;;2.97;2.30;;;;;;;;;;5072165;28;20629;-64
2023/11/08 12:01:55;;;;;;;2.43;2.23;;;;;;;;;;5070023;28;20679;-64
2023/11/08 12:04:25;;;;;;;1.83;1.73;;;;;;;;;;5052347;28;20710;-64
2023/11/08 12:06:55;;;;;;;2.00;1.67;;;;;;;;;;5069055;28;20625;-64
2023/11/08 12:09:24;;;;;;;2.03;1.73;;;;;;;;;;5071052;28;21168;-64
2023/11/08 12:11:52;;;;;;;3.67;2.23;;;;;;;;;;5071111;28;20634;-64
2023/11/08 12:14:23;;;;;;;2.40;1.90;;;;;;;;;;5071177;28;21152;-64
2023/11/08 12:16:55;;;;;;;2.30;2.10;;;;;;;;;;5070710;28;20583;-64
2023/11/08 12:19:23;;;;;;;2.03;1.93;;;;;;;;;;5070870;28;20628;-64
2023/11/08 12:21:53;;;;;;;4.33;2.70;;;;;;;;;;5070276;28;20613;-64
2023/11/08 12:24:21;;;;;;;1.98;1.65;;;;;;;;;;5071100;28;20640;-64
2023/11/08 12:26:49;;;;;;;7.13;2.10;;;;;;;;;;5070156;28;20859;-64
2023/11/08 12:29:17;;;;;;;2.67;1.90;;;;;;;;;;5070978;28;20978;-64
2023/11/08 12:31:46;;;;;;;2.50;2.10;;;;;;;;;;5052878;28;20963;-64
2023/11/08 12:34:16;;;;;;;6.37;2.30;;;;;;;;;;5066453;28;20957;-64
2023/11/08 12:36:45;;;;;;;1.60;1.50;;;;;;;;;;5079926;28;20621;-64
2023/11/08 12:39:20;;;;;;;2.00;1.67;;;;;;;;;;5071406;28;20693;-64
2023/11/08 12:41:49;;;;;;;1.80;1.70;;;;;;;;;;5074918;28;20192;-64
2023/11/08 12:44:19;;;;;;;2.97;1.70;;;;;;;;;;5068338;28;20703;-64
2023/11/08 12:46:49;;;;;;;2.07;1.70;;;;;;;;;;5072306;28;20618;-64
2023/11/08 12:49:17;;;;;;;2.07;1.50;;;;;;;;;;5073151;28;20601;-64
2023/11/08 12:51:46;;;;;;;2.03;1.83;;;;;;;;;;5074191;28;20617;-64
2023/11/08 12:54:15;;;;;;;3.90;1.80;;;;;;;;;;5054324;28;20593;-63
2023/11/08 12:56:45;;;;;;;2.97;1.70;;;;;;;;;;5068585;28;20604;-64
2023/11/08 12:59:16;;;;;;;1.70;1.60;;;;;;;;;;5070453;28;20602;-64
2023/11/08 13:01:45;;;;;;;3.03;1.80;;;;;;;;;;5068036;28;21202;-64
2023/11/08 13:04:18;;;;;;;2.80;2.17;;;;;;;;;;5067412;28;20649;-65
2023/11/08 13:06:46;;;;;;;2.20;2.10;;;;;;;;;;5069942;28;20581;-64
2023/11/08 13:09:14;;;;;;;2.87;2.70;;;;;;;;;;5056398;28;20614;-64
2023/11/08 13:11:43;;;;;;;2.73;2.53;;;;;;;;;;5043333;28;20662;-64
2023/11/08 13:14:16;;;;;;;2.50;2.40;;;;;;;;;;5050817;28;21145;-64
2023/11/08 13:16:48;;;;;;;2.60;2.50;;;;;;;;;;5050172;28;20659;-64
2023/11/08 13:19:16;;;;;;;2.50;2.30;;;;;;;;;;5051140;28;20680;-65
2023/11/08 13:21:44;;;;;;;2.97;2.77;;;;;;;;;;5052606;28;20636;-64
2023/11/08 13:24:13;;;;;;;2.90;2.80;;;;;;;;;;5057177;28;21032;-64
2023/11/08 13:26:41;;;;;;;3.87;3.50;;;;;;;;;;5053446;28;20680;-64
2023/11/08 13:29:09;;;;;;;3.77;3.23;;;;;;;;;;5035514;28;20605;-64
2023/11/08 13:31:39;;;;;;;3.20;3.10;;;;;;;;;;5050529;28;20611;-64
2023/11/08 13:34:08;;;;;;;3.90;3.80;;;;;;;;;;5050054;28;21050;-64
2023/11/08 13:36:36;;;;;;;3.90;3.60;;;;;;;;;;5050117;28;20615;-65
2023/11/08 13:39:07;;;;;;;2.43;2.33;;;;;;;;;;5050887;28;21183;-62
2023/11/08 13:41:35;;;;;;;2.60;2.50;;;;;;;;;;5050925;28;21149;-64
2023/11/08 13:44:07;;;;;;;2.23;2.13;;;;;;;;;;5049801;28;20673;-63
2023/11/08 13:46:35;;;;;;;2.30;2.20;;;;;;;;;;5046874;28;20631;-63
2023/11/08 13:49:07;;;;;;;2.40;2.30;;;;;;;;;;5047196;28;20611;-64
2023/11/08 13:51:36;;;;;;;2.90;2.70;;;;;;;;;;5050150;28;20622;-63
2023/11/08 13:54:04;;;;;;;2.70;2.50;;;;;;;;;;5049536;28;20590;-63
2023/11/08 13:56:37;;;;;;;2.17;2.07;;;;;;;;;;5049967;28;20609;-64
2023/11/08 13:59:05;;;;;;;1.83;1.73;;;;;;;;;;5043186;28;20643;-64
2023/11/08 14:01:33;;;;;;;1.73;1.63;;;;;;;;;;5045837;28;20646;-64
2023/11/08 14:04:02;;;;;;;2.10;2.00;;;;;;;;;;5047374;28;20663;-63
2023/11/08 14:06:35;;;;;;;2.97;1.90;;;;;;;;;;5050504;28;21199;-63
2023/11/08 14:09:04;;;;;;;2.27;1.90;;;;;;;;;;5049228;28;20610;-63
2023/11/08 14:11:32;;;;;;;2.17;1.83;;;;;;;;;;5049840;28;20654;-64
2023/11/08 14:14:00;;;;;;;4.00;2.13;;;;;;;;;;5052486;28;21181;-63
2023/11/08 14:16:29;;;;;;;1.83;1.70;;;;;;;;;;5052650;28;20641;-63
2023/11/08 14:18:57;;;;;;;2.80;1.80;;;;;;;;;;5052962;28;20634;-63
2023/11/08 14:21:25;;;;;;;2.00;1.90;;;;;;;;;;5053382;28;21221;-63
2023/11/08 14:23:58;;;;;;;5.70;1.93;;;;;;;;;;5053658;28;20611;-63
2023/11/08 14:26:28;;;;;;;2.00;1.90;;;;;;;;;;5052950;28;20622;-63
2023/11/08 14:28:57;;;;;;;2.27;1.70;;;;;;;;;;5049755;28;20639;-63
2023/11/08 14:31:24;;;;;;;2.73;2.53;;;;;;;;;;5052432;28;21153;-63
2023/11/08 14:33:56;;;;;;;2.10;2.00;;;;;;;;;;5048249;28;20910;-62
2023/11/08 14:36:27;;;;;;;2.40;1.60;;;;;;;;;;5052172;28;20625;-63
2023/11/08 14:38:57;;;;;;;1.63;1.40;;;;;;;;;;5053289;28;20639;-62
2023/11/08 14:41:27;;;;;;;1.80;1.70;;;;;;;;;;5052877;28;20633;-62
2023/11/08 14:43:56;;;;;;;1.70;1.60;;;;;;;;;;5050072;28;20673;-63
2023/11/08 14:46:25;;;;;;;2.70;2.50;;;;;;;;;;5050198;28;20741;-63
2023/11/08 14:48:53;;;;;;;13.00;9.13;;;;;;;;;;5051258;28;20618;-63
2023/11/08 14:51:25;;;;;;;2.40;2.30;;;;;;;;;;5050818;28;20614;-63
2023/11/08 14:53:55;;;;;;;8.57;4.10;;;;;;;;;;5050288;28;20682;-63